Time;durP1;ratioP1;P1;durP2;ratioP2;P2;SDS_P1;SDS_P2;PMS_P1;PMS_P2;Temp;Humidity;BMP_temperature;BMP_pressure;BME280_temperature;BME280_humidity;BME280_pressure;Samples;Min_cycle;Max_cycle;Signal;HPM_P1;HPM_P2
2022/04/07 00:00:35;;;;;;;5.22;2.13;;;10.60;87.00;;;;;;5133501;28;20035;-68
2022/04/07 00:03:00;;;;;;;3.83;2.13;;;10.60;86.50;;;;;;5133446;28;20035;-68
2022/04/07 00:05:26;;;;;;;3.88;1.90;;;10.70;86.00;;;;;;5133512;28;20027;-67
2022/04/07 00:07:51;;;;;;;3.75;1.65;;;10.70;86.00;;;;;;5133432;28;20028;-67
2022/04/07 00:10:18;;;;;;;5.18;1.65;;;10.70;85.60;;;;;;5133525;28;20031;-67
2022/04/07 00:12:44;;;;;;;3.50;1.70;;;10.70;85.20;;;;;;5133420;28;20020;-67
2022/04/07 00:15:11;;;;;;;3.22;1.70;;;10.70;85.30;;;;;;5133378;28;20027;-68
2022/04/07 00:17:37;;;;;;;4.18;1.58;;;10.80;84.80;;;;;;5133371;28;20079;-68
2022/04/07 00:20:04;;;;;;;5.60;1.70;;;10.80;84.50;;;;;;5133336;28;20054;-68
2022/04/07 00:22:29;;;;;;;4.13;1.52;;;10.80;84.20;;;;;;5133295;28;20020;-68
2022/04/07 00:24:56;;;;;;;3.33;1.50;;;10.80;84.10;;;;;;5133190;28;20088;-68
2022/04/07 00:27:22;;;;;;;2.90;1.65;;;10.80;83.70;;;;;;5133304;28;20110;-68
2022/04/07 00:29:47;;;;;;;2.20;1.35;;;10.70;84.00;;;;;;5133191;28;20023;-68
2022/04/07 00:32:13;;;;;;;2.97;1.50;;;10.70;84.30;;;;;;5134565;28;20046;-68
2022/04/07 00:34:39;;;;;;;8.50;1.70;;;10.70;83.80;;;;;;5135856;28;20020;-68
2022/04/07 00:37:05;;;;;;;1.48;1.20;;;10.70;83.20;;;;;;5136730;28;20046;-68
2022/04/07 00:39:31;;;;;;;4.05;1.20;;;10.70;83.20;;;;;;5136840;28;20065;-68
2022/04/07 00:41:57;;;;;;;4.70;1.55;;;10.70;83.30;;;;;;5136867;28;20024;-68
2022/04/07 00:44:22;;;;;;;4.28;1.90;;;10.70;83.50;;;;;;5135685;28;20407;-68
2022/04/07 00:46:49;;;;;;;2.30;1.25;;;10.70;83.70;;;;;;5136737;28;20027;-68
2022/04/07 00:49:15;;;;;;;5.07;1.38;;;10.70;84.10;;;;;;5136681;28;20024;-68
2022/04/07 00:51:43;;;;;;;4.70;1.40;;;10.70;84.40;;;;;;5136615;28;20024;-68
2022/04/07 00:54:10;;;;;;;3.83;0.98;;;10.60;84.80;;;;;;5136638;28;20034;-68
2022/04/07 00:56:37;;;;;;;6.05;1.60;;;10.60;84.30;;;;;;5136564;28;20028;-68
2022/04/07 00:59:05;;;;;;;3.20;1.40;;;10.70;84.40;;;;;;5135431;28;20019;-68
2022/04/07 01:01:31;;;;;;;3.65;1.23;;;10.60;84.20;;;;;;5136416;28;20031;-67
2022/04/07 01:03:57;;;;;;;7.05;1.63;;;10.60;84.10;;;;;;5136364;28;20020;-68
2022/04/07 01:06:24;;;;;;;3.95;1.30;;;10.60;84.50;;;;;;5135295;28;20028;-68
2022/04/07 01:08:50;;;;;;;4.38;1.25;;;10.60;84.00;;;;;;5136316;28;20020;-68
2022/04/07 01:11:17;;;;;;;5.25;1.20;;;10.60;83.80;;;;;;5136247;28;20020;-68
2022/04/07 01:13:47;;;;;;;4.07;1.10;;;10.70;85.00;;;;;;5136210;28;20079;-68
2022/04/07 01:16:14;;;;;;;6.82;1.52;;;10.60;84.40;;;;;;5136298;28;20036;-68
2022/04/07 01:18:40;;;;;;;2.78;1.60;;;10.60;84.60;;;;;;5136141;27;20026;-68
2022/04/07 01:21:09;;;;;;;2.88;1.45;;;10.60;84.30;;;;;;5136068;28;20076;-68
2022/04/07 01:23:38;;;;;;;3.47;1.40;;;10.60;84.60;;;;;;5136010;28;20032;-68
2022/04/07 01:26:04;;;;;;;6.00;1.63;;;10.60;84.50;;;;;;5135897;28;20083;-69
2022/04/07 01:28:31;;;;;;;4.50;1.20;;;10.60;84.20;;;;;;5134787;28;20042;-68
2022/04/07 01:30:57;;;;;;;2.85;1.30;;;10.50;84.70;;;;;;5135896;28;20020;-68
2022/04/07 01:33:23;;;;;;;9.50;1.88;;;10.60;84.80;;;;;;5134989;28;20044;-69
2022/04/07 01:35:49;;;;;;;6.38;1.70;;;10.50;85.30;;;;;;5135584;28;20057;-68
2022/04/07 01:38:16;;;;;;;4.78;1.30;;;10.50;85.80;;;;;;5135788;28;20023;-67
2022/04/07 01:40:43;;;;;;;4.00;1.38;;;10.50;85.40;;;;;;5134929;28;20030;-67
2022/04/07 01:43:10;;;;;;;3.20;1.63;;;10.50;85.60;;;;;;5135293;28;20031;-66
2022/04/07 01:45:36;;;;;;;5.35;1.63;;;10.50;85.60;;;;;;5134375;28;20091;-67
2022/04/07 01:48:03;;;;;;;4.05;1.60;;;10.50;85.20;;;;;;5134485;28;20028;-67
2022/04/07 01:50:29;;;;;;;4.70;1.42;;;10.50;84.90;;;;;;5135449;28;20031;-67
2022/04/07 01:52:56;;;;;;;7.35;1.70;;;10.60;84.90;;;;;;5135435;28;20107;-68
2022/04/07 01:55:23;;;;;;;5.18;1.70;;;10.60;84.50;;;;;;5135320;28;20023;-68
2022/04/07 01:57:49;;;;;;;5.75;1.92;;;10.60;83.90;;;;;;5135379;28;20028;-68
2022/04/07 02:00:15;;;;;;;3.35;1.50;;;10.60;84.20;;;;;;5135315;28;20031;-67
2022/04/07 02:02:42;;;;;;;5.35;1.40;;;10.60;83.20;;;;;;5135284;28;20031;-68
2022/04/07 02:05:08;;;;;;;3.17;1.60;;;10.60;83.20;;;;;;5135100;28;20047;-68
2022/04/07 02:07:36;;;;;;;5.50;1.55;;;10.70;83.00;;;;;;5135131;28;20107;-68
2022/04/07 02:10:03;;;;;;;2.63;0.90;;;10.70;82.30;;;;;;5135096;28;20020;-67
2022/04/07 02:12:29;;;;;;;3.67;1.60;;;10.70;82.40;;;;;;5135029;28;20023;-68
2022/04/07 02:14:59;;;;;;;3.42;1.35;;;10.70;82.80;;;;;;5135023;28;20023;-68
2022/04/07 02:17:25;;;;;;;5.40;1.58;;;10.70;82.20;;;;;;5135120;27;20034;-68
2022/04/07 02:19:55;;;;;;;11.77;1.58;;;10.70;82.50;;;;;;5134873;28;20020;-69
2022/04/07 02:22:21;;;;;;;4.72;1.38;;;10.60;82.40;;;;;;5134891;28;20039;-68
2022/04/07 02:24:47;;;;;;;6.28;1.95;;;10.70;82.80;;;;;;5134693;28;20091;-69
2022/04/07 02:27:14;;;;;;;4.30;1.83;;;10.70;82.70;;;;;;5134763;28;20024;-68
2022/04/07 02:29:42;;;;;;;6.75;1.50;;;10.70;82.80;;;;;;5133669;28;20205;-68
2022/04/07 02:32:08;;;;;;;2.58;1.08;;;10.70;83.60;;;;;;5134682;28;20020;-68
2022/04/07 02:34:34;;;;;;;3.38;1.35;;;10.70;83.20;;;;;;5133526;28;20016;-68
2022/04/07 02:36:59;;;;;;;4.38;1.45;;;10.70;83.50;;;;;;5134347;28;20043;-68
2022/04/07 02:39:25;;;;;;;4.18;1.92;;;10.60;83.30;;;;;;5134530;28;20055;-68
2022/04/07 02:41:51;;;;;;;7.13;1.50;;;10.60;83.60;;;;;;5134502;28;20091;-68
2022/04/07 02:44:18;;;;;;;11.27;1.75;;;10.60;83.20;;;;;;5134162;28;20042;-68
2022/04/07 02:46:44;;;;;;;3.20;1.40;;;10.60;83.30;;;;;;5134331;28;20024;-68
2022/04/07 02:49:09;;;;;;;5.13;1.48;;;10.70;83.20;;;;;;5134382;28;20027;-69
2022/04/07 02:51:35;;;;;;;7.45;1.42;;;10.70;82.80;;;;;;5133421;28;20038;-69
2022/04/07 02:54:00;;;;;;;6.10;1.63;;;10.70;82.90;;;;;;5133196;28;20106;-69
2022/04/07 02:56:27;;;;;;;5.85;1.98;;;10.70;82.90;;;;;;5133356;28;20027;-69
2022/04/07 02:58:53;;;;;;;3.03;1.52;;;10.70;82.80;;;;;;5133232;28;20050;-69
2022/04/07 03:01:19;;;;;;;3.63;1.02;;;10.70;82.70;;;;;;5133203;28;20020;-69
2022/04/07 03:03:45;;;;;;;5.32;1.50;;;10.70;82.10;;;;;;5134095;28;20045;-69
2022/04/07 03:06:11;;;;;;;3.50;1.58;;;10.70;81.90;;;;;;5133020;28;20087;-68
2022/04/07 03:08:36;;;;;;;6.35;1.70;;;10.70;81.70;;;;;;5134058;28;20045;-68
2022/04/07 03:11:03;;;;;;;4.53;1.73;;;10.70;81.80;;;;;;5133998;28;20024;-68
2022/04/07 03:13:28;;;;;;;5.55;1.10;;;10.70;81.30;;;;;;5133032;28;20091;-68
2022/04/07 03:15:54;;;;;;;4.82;1.27;;;10.70;81.00;;;;;;5134066;28;20057;-68
2022/04/07 03:18:20;;;;;;;6.30;1.23;;;10.70;80.70;;;;;;5133924;28;20036;-68
2022/04/07 03:20:46;;;;;;;5.38;1.25;;;10.80;80.70;;;;;;5134010;28;20027;-68
2022/04/07 03:23:12;;;;;;;5.43;1.52;;;10.80;80.40;;;;;;5133862;28;20035;-68
2022/04/07 03:25:38;;;;;;;4.78;1.73;;;10.90;80.40;;;;;;5133775;28;20092;-68
2022/04/07 03:28:04;;;;;;;5.20;1.45;;;10.90;80.10;;;;;;5133743;28;20051;-68
2022/04/07 03:30:30;;;;;;;4.95;2.00;;;10.90;80.10;;;;;;5133817;28;20027;-68
2022/04/07 03:32:56;;;;;;;4.47;1.67;;;10.90;79.70;;;;;;5133824;28;20069;-68
2022/04/07 03:35:21;;;;;;;7.00;1.63;;;10.90;79.50;;;;;;5133873;28;20061;-68
2022/04/07 03:37:47;;;;;;;7.25;1.95;;;11.00;79.50;;;;;;5132524;28;20075;-68
2022/04/07 03:40:13;;;;;;;10.82;2.00;;;10.90;79.50;;;;;;5133688;28;20020;-68
2022/04/07 03:42:38;;;;;;;4.95;1.67;;;11.00;79.40;;;;;;5133680;28;20035;-68
2022/04/07 03:45:05;;;;;;;7.07;1.52;;;11.00;78.90;;;;;;5133730;28;20055;-68
2022/04/07 03:47:31;;;;;;;8.73;1.98;;;11.00;78.60;;;;;;5132659;28;20036;-69
2022/04/07 03:49:57;;;;;;;3.63;1.42;;;11.10;78.70;;;;;;5133603;28;20020;-68
2022/04/07 03:52:23;;;;;;;5.43;1.55;;;11.00;78.40;;;;;;5133578;28;20035;-69
2022/04/07 03:54:48;;;;;;;6.05;1.50;;;11.00;78.30;;;;;;5133609;28;20027;-68
2022/04/07 03:57:14;;;;;;;4.57;1.60;;;11.10;78.00;;;;;;5133544;28;20539;-68
2022/04/07 03:59:42;;;;;;;5.85;1.30;;;11.10;77.50;;;;;;5133516;28;20039;-68
2022/04/07 04:02:10;;;;;;;3.33;1.23;;;11.10;77.80;;;;;;5133541;28;20083;-68
2022/04/07 04:04:39;;;;;;;4.13;1.50;;;11.10;77.50;;;;;;5133411;28;20024;-68
2022/04/07 04:07:05;;;;;;;4.45;1.42;;;11.10;77.60;;;;;;5134697;28;20027;-68
2022/04/07 04:09:32;;;;;;;5.32;1.52;;;11.10;77.70;;;;;;5137431;28;20035;-68
2022/04/07 04:11:58;;;;;;;5.35;1.48;;;11.10;78.20;;;;;;5137441;28;20050;-68
2022/04/07 04:14:24;;;;;;;9.20;1.83;;;11.10;78.40;;;;;;5136375;28;20029;-68
2022/04/07 04:16:50;;;;;;;4.22;1.58;;;11.00;79.00;;;;;;5137386;28;20024;-68
2022/04/07 04:19:15;;;;;;;6.40;1.70;;;11.00;78.80;;;;;;5137300;28;20030;-68
2022/04/07 04:21:41;;;;;;;9.13;1.90;;;11.00;78.70;;;;;;5137229;28;20043;-68
2022/04/07 04:24:07;;;;;;;4.28;1.52;;;11.00;79.20;;;;;;5137287;28;20039;-68
2022/04/07 04:26:32;;;;;;;6.55;1.42;;;11.00;78.80;;;;;;5137063;28;20032;-68
2022/04/07 04:28:58;;;;;;;5.50;1.30;;;11.00;78.60;;;;;;5136181;28;20027;-68
2022/04/07 04:31:24;;;;;;;6.40;1.77;;;11.00;78.20;;;;;;5135994;28;20077;-68
2022/04/07 04:33:52;;;;;;;3.85;1.52;;;11.00;77.60;;;;;;5136977;28;20011;-68
2022/04/07 04:36:18;;;;;;;6.93;1.45;;;11.00;77.70;;;;;;5135816;28;20050;-68
2022/04/07 04:38:43;;;;;;;7.35;1.70;;;11.00;77.90;;;;;;5136867;28;20027;-67
2022/04/07 04:41:09;;;;;;;3.15;1.25;;;11.00;77.80;;;;;;5136872;28;20020;-67
2022/04/07 04:43:35;;;;;;;5.53;1.42;;;11.00;77.40;;;;;;5136945;28;20032;-67
2022/04/07 04:46:01;;;;;;;3.20;1.23;;;11.00;77.50;;;;;;5136679;28;20032;-67
2022/04/07 04:48:27;;;;;;;3.15;0.80;;;11.00;76.90;;;;;;5136717;28;20019;-67
2022/04/07 04:50:53;;;;;;;2.85;0.88;;;11.00;77.70;;;;;;5136639;28;20027;-67
2022/04/07 04:53:18;;;;;;;2.88;1.48;;;11.10;76.90;;;;;;5136571;28;20040;-67
2022/04/07 04:55:44;;;;;;;3.55;1.05;;;11.10;77.00;;;;;;5136451;28;20344;-67
2022/04/07 04:58:09;;;;;;;5.07;1.10;;;11.10;77.30;;;;;;5135398;28;20058;-67
2022/04/07 05:00:35;;;;;;;2.15;1.33;;;11.10;77.00;;;;;;5136467;28;20034;-67
2022/04/07 05:03:01;;;;;;;5.70;1.50;;;11.10;77.80;;;;;;5136544;28;20024;-67
2022/04/07 05:05:26;;;;;;;4.00;1.13;;;11.10;78.60;;;;;;5136295;28;20066;-68
2022/04/07 05:07:52;;;;;;;4.00;1.15;;;11.10;79.70;;;;;;5135309;28;20024;-67
2022/04/07 05:10:18;;;;;;;7.35;1.58;;;11.00;80.80;;;;;;5136442;28;20028;-67
2022/04/07 05:12:44;;;;;;;8.38;1.48;;;10.90;81.00;;;;;;5136366;27;20015;-67
2022/04/07 05:15:10;;;;;;;3.15;1.40;;;10.80;82.40;;;;;;5135243;28;20055;-67
2022/04/07 05:17:35;;;;;;;4.07;1.20;;;10.70;83.60;;;;;;5136122;28;20102;-67
2022/04/07 05:20:02;;;;;;;3.70;1.55;;;10.60;84.30;;;;;;5134064;28;20093;-67
2022/04/07 05:22:27;;;;;;;5.15;1.20;;;10.60;85.20;;;;;;5136037;28;20027;-67
2022/04/07 05:24:53;;;;;;;4.25;1.30;;;10.50;85.70;;;;;;5135917;28;20042;-67
2022/04/07 05:27:18;;;;;;;2.92;1.30;;;10.50;86.70;;;;;;5135009;28;20103;-67
2022/04/07 05:29:44;;;;;;;3.05;1.38;;;10.40;86.90;;;;;;5135831;28;20028;-67
2022/04/07 05:32:10;;;;;;;4.53;2.50;;;10.40;87.20;;;;;;5135851;28;20022;-67
2022/04/07 05:34:35;;;;;;;2.38;1.33;;;10.40;87.40;;;;;;5135880;28;20437;-66
2022/04/07 05:37:01;;;;;;;4.40;1.55;;;10.50;87.30;;;;;;5135598;28;20069;-67
2022/04/07 05:39:27;;;;;;;2.80;1.60;;;10.40;87.70;;;;;;5134669;28;20621;-66
2022/04/07 05:41:52;;;;;;;1.30;1.13;;;10.50;87.00;;;;;;5135629;28;20016;-67
2022/04/07 05:44:18;;;;;;;5.45;1.50;;;10.40;87.30;;;;;;5135525;28;20019;-67
2022/04/07 05:46:43;;;;;;;3.20;1.60;;;10.40;87.80;;;;;;5135428;28;20514;-67
2022/04/07 05:49:10;;;;;;;2.95;1.38;;;10.40;88.30;;;;;;5135455;28;20038;-67
2022/04/07 05:51:36;;;;;;;2.92;2.17;;;10.40;88.60;;;;;;5135498;28;20024;-67
2022/04/07 05:54:02;;;;;;;3.63;2.35;;;10.30;88.90;;;;;;5134391;28;20024;-67
2022/04/07 05:56:28;;;;;;;4.05;2.38;;;10.30;89.10;;;;;;5134319;28;20054;-68
2022/04/07 05:58:54;;;;;;;5.40;2.90;;;10.30;89.80;;;;;;5134305;28;20046;-67
2022/04/07 06:01:20;;;;;;;4.78;2.42;;;10.30;90.30;;;;;;5134372;28;20042;-67
2022/04/07 06:03:46;;;;;;;4.78;2.40;;;10.20;90.60;;;;;;5134278;28;20027;-67
2022/04/07 06:06:11;;;;;;;8.40;3.30;;;10.10;90.70;;;;;;5135211;28;20456;-67
2022/04/07 06:08:37;;;;;;;6.43;3.22;;;10.10;90.70;;;;;;5135095;28;20072;-67
2022/04/07 06:11:03;;;;;;;5.82;3.08;;;10.10;90.90;;;;;;5135164;28;20019;-67
2022/04/07 06:13:28;;;;;;;4.50;2.00;;;10.10;91.00;;;;;;5135023;28;20027;-68
2022/04/07 06:15:54;;;;;;;4.93;2.50;;;10.10;90.80;;;;;;5135103;28;20032;-67
2022/04/07 06:18:20;;;;;;;6.00;1.92;;;10.10;90.60;;;;;;5133919;28;20032;-67
2022/04/07 06:20:47;;;;;;;5.85;2.10;;;10.00;90.60;;;;;;5134887;28;20054;-68
2022/04/07 06:23:13;;;;;;;3.88;1.90;;;10.10;90.90;;;;;;5134821;28;20038;-67
2022/04/07 06:25:38;;;;;;;8.18;2.63;;;10.00;90.80;;;;;;5134762;28;20035;-67
2022/04/07 06:28:04;;;;;;;3.80;1.95;;;10.00;90.90;;;;;;5133683;28;20024;-68
2022/04/07 06:30:30;;;;;;;6.38;2.20;;;10.00;90.60;;;;;;5134573;28;20020;-67
2022/04/07 06:32:56;;;;;;;3.13;1.73;;;10.10;90.60;;;;;;5133530;28;20031;-67
2022/04/07 06:35:22;;;;;;;2.03;1.60;;;10.00;90.70;;;;;;5134634;28;20060;-67
2022/04/07 06:37:54;;;;;;;5.03;2.03;;;10.00;90.70;;;;;;5134414;28;20058;-67
2022/04/07 06:40:24;;;;;;;4.90;1.65;;;10.00;90.80;;;;;;5134607;28;20090;-67
2022/04/07 06:42:51;;;;;;;3.10;1.60;;;10.00;91.00;;;;;;5134579;28;20020;-67
2022/04/07 06:45:17;;;;;;;3.15;1.38;;;10.00;91.00;;;;;;5134274;28;20036;-67
2022/04/07 06:47:43;;;;;;;4.03;1.40;;;10.00;91.00;;;;;;5134484;28;20024;-67
2022/04/07 06:50:14;;;;;;;3.55;1.17;;;10.00;90.90;;;;;;5134502;28;20019;-67
2022/04/07 06:52:41;;;;;;;3.35;1.48;;;10.00;90.90;;;;;;5134317;28;20380;-67
2022/04/07 06:55:08;;;;;;;3.75;1.42;;;10.00;90.90;;;;;;5134281;28;20016;-69
2022/04/07 06:57:54;;;;;;;2.40;1.17;;;10.00;91.00;;;;;;5134229;28;20114;-68
2022/04/07 07:00:25;;;;;;;3.78;1.25;;;10.00;91.10;;;;;;5134235;28;20028;-68
2022/04/07 07:02:53;;;;;;;2.40;0.98;;;10.00;91.20;;;;;;5133205;28;20024;-68
2022/04/07 07:05:23;;;;;;;1.67;1.05;;;9.90;91.20;;;;;;5134071;28;20594;-68
2022/04/07 07:07:49;;;;;;;1.05;0.70;;;9.90;91.00;;;;;;5133960;28;20030;-68
2022/04/07 07:10:25;;;;;;;2.85;0.70;;;9.90;91.10;;;;;;5134016;28;20559;-69
2022/04/07 07:12:51;;;;;;;2.13;0.90;;;9.90;91.20;;;;;;5134160;28;20032;-69
2022/04/07 07:15:17;;;;;;;4.43;0.90;;;9.90;91.20;;;;;;5132876;28;20035;-69
2022/04/07 07:17:43;;;;;;;2.92;0.90;;;9.90;91.30;;;;;;5133923;28;20031;-68
2022/04/07 07:20:11;;;;;;;7.45;1.33;;;9.90;91.60;;;;;;5133908;28;20126;-69
2022/04/07 07:22:37;;;;;;;3.72;0.90;;;9.90;91.40;;;;;;5133887;28;20054;-68
2022/04/07 07:25:04;;;;;;;3.33;1.17;;;9.90;91.40;;;;;;5133788;28;20073;-68
2022/04/07 07:27:39;;;;;;;1.30;0.80;;;9.80;91.70;;;;;;5133723;28;20022;-67
2022/04/07 07:30:09;;;;;;;2.95;0.85;;;9.80;91.80;;;;;;5133838;28;20028;-68
2022/04/07 07:32:36;;;;;;;3.92;1.02;;;9.80;92.10;;;;;;5133766;28;20027;-68
2022/04/07 07:35:01;;;;;;;3.60;1.05;;;9.80;92.20;;;;;;5133738;28;20028;-68
2022/04/07 07:37:27;;;;;;;4.47;0.98;;;9.80;92.20;;;;;;5133462;28;20062;-67
2022/04/07 07:39:52;;;;;;;5.03;1.65;;;9.80;92.30;;;;;;5133809;28;20031;-68
2022/04/07 07:42:18;;;;;;;1.75;1.00;;;9.80;92.50;;;;;;5135350;28;20049;-68
2022/04/07 07:44:44;;;;;;;3.20;1.20;;;9.80;92.60;;;;;;5137824;28;20036;-68
2022/04/07 07:47:09;;;;;;;3.92;1.30;;;9.90;92.60;;;;;;5137885;28;20050;-68
2022/04/07 07:49:35;;;;;;;4.15;1.58;;;9.90;92.50;;;;;;5137817;28;20031;-68
2022/04/07 07:52:02;;;;;;;3.50;1.08;;;10.00;92.50;;;;;;5137959;28;20020;-69
2022/04/07 07:54:28;;;;;;;3.97;1.13;;;10.00;90.60;;;;;;5137700;28;20106;-69
2022/04/07 07:56:54;;;;;;;2.55;0.60;;;9.90;90.20;;;;;;5137727;28;20030;-68
2022/04/07 07:59:20;;;;;;;1.52;0.30;;;9.70;86.50;;;;;;5137670;28;20043;-68
2022/04/07 08:01:48;;;;;;;1.15;0.43;;;9.60;87.20;;;;;;5137513;28;20104;-68
2022/04/07 08:04:14;;;;;;;1.58;0.50;;;9.50;87.40;;;;;;5137543;27;20024;-69
2022/04/07 08:06:40;;;;;;;2.42;0.75;;;9.40;87.20;;;;;;5137460;28;20077;-68
2022/04/07 08:09:06;;;;;;;2.35;0.77;;;9.30;86.50;;;;;;5137530;28;20075;-69
2022/04/07 08:11:32;;;;;;;3.88;0.70;;;9.30;87.20;;;;;;5137424;28;20020;-68
2022/04/07 08:13:57;;;;;;;2.50;0.80;;;9.30;87.20;;;;;;5137366;28;20016;-68
2022/04/07 08:16:23;;;;;;;1.27;0.88;;;9.20;86.60;;;;;;5137323;28;20031;-68
2022/04/07 08:18:49;;;;;;;2.03;1.10;;;9.20;87.10;;;;;;5137320;28;20027;-68
2022/04/07 08:21:14;;;;;;;3.33;1.42;;;9.20;86.90;;;;;;5137222;28;20027;-68
2022/04/07 08:23:40;;;;;;;2.15;1.20;;;9.10;86.70;;;;;;5136168;28;20055;-68
2022/04/07 08:26:05;;;;;;;3.50;1.20;;;9.10;86.70;;;;;;5137083;28;20054;-69
2022/04/07 08:28:31;;;;;;;1.40;1.02;;;9.00;86.10;;;;;;5137001;28;20024;-68
2022/04/07 08:30:56;;;;;;;1.88;1.20;;;9.00;86.30;;;;;;5137059;28;20027;-68
2022/04/07 08:33:22;;;;;;;2.58;1.30;;;9.00;86.40;;;;;;5136974;28;20023;-68
2022/04/07 08:35:48;;;;;;;2.75;1.45;;;8.90;87.00;;;;;;5136788;28;20027;-69
2022/04/07 08:38:15;;;;;;;6.00;2.42;;;8.90;86.50;;;;;;5136678;28;20051;-68
2022/04/07 08:40:42;;;;;;;4.50;1.85;;;8.90;87.00;;;;;;5136884;28;20042;-69
2022/04/07 08:43:09;;;;;;;9.82;2.95;;;8.90;87.30;;;;;;5136837;28;20035;-69
2022/04/07 08:45:42;;;;;;;5.40;2.28;;;8.90;87.60;;;;;;5135761;28;20020;-69
2022/04/07 08:48:10;;;;;;;6.22;2.40;;;8.80;87.80;;;;;;5136894;28;20019;-69
2022/04/07 08:50:39;;;;;;;5.28;2.53;;;8.80;87.80;;;;;;5136709;28;20024;-69
2022/04/07 08:53:06;;;;;;;9.52;3.40;;;8.80;88.90;;;;;;5135622;28;20031;-69
2022/04/07 08:55:33;;;;;;;7.43;2.60;;;8.80;90.10;;;;;;5136193;28;20119;-69
2022/04/07 08:58:00;;;;;;;5.28;2.20;;;8.80;90.30;;;;;;5136623;28;20103;-68
2022/04/07 09:00:26;;;;;;;3.53;2.00;;;8.90;89.60;;;;;;5136489;28;20053;-69
2022/04/07 09:02:55;;;;;;;8.35;3.13;;;8.90;90.00;;;;;;5135379;28;20142;-69
2022/04/07 09:05:25;;;;;;;5.90;1.52;;;9.00;90.40;;;;;;5136292;28;20036;-66
2022/04/07 09:07:52;;;;;;;1.90;0.93;;;9.00;90.20;;;;;;5135412;28;20022;-66
2022/04/07 09:10:19;;;;;;;3.90;1.50;;;9.10;90.10;;;;;;5136335;28;20023;-66
2022/04/07 09:12:45;;;;;;;3.53;1.33;;;9.20;90.40;;;;;;5136264;28;20028;-66
2022/04/07 09:15:13;;;;;;;8.35;2.10;;;9.30;90.20;;;;;;5135345;28;20094;-66
2022/04/07 09:17:53;;;;;;;3.85;1.08;;;9.50;91.20;;;;;;5135192;28;20548;-66
2022/04/07 09:20:19;;;;;;;2.92;1.27;;;9.70;90.80;;;;;;5136165;28;20057;-66
2022/04/07 09:22:53;;;;;;;1.90;0.85;;;9.80;90.20;;;;;;5136053;28;20020;-66
2022/04/07 09:25:19;;;;;;;2.42;1.00;;;9.90;89.90;;;;;;5135995;28;20097;-66
2022/04/07 09:27:48;;;;;;;4.57;1.35;;;10.00;90.50;;;;;;5135886;28;20020;-66
2022/04/07 09:30:14;;;;;;;4.35;0.90;;;10.10;90.30;;;;;;5135945;28;20023;-66
2022/04/07 09:32:43;;;;;;;3.45;0.90;;;10.30;90.10;;;;;;5135838;28;20078;-66
2022/04/07 09:35:09;;;;;;;2.35;0.90;;;10.50;90.00;;;;;;5134771;28;20019;-68
2022/04/07 09:37:35;;;;;;;2.70;1.00;;;10.70;88.70;;;;;;5135578;28;20048;-67
2022/04/07 09:40:16;;;;;;;1.88;1.00;;;10.90;88.30;;;;;;5135842;28;20036;-68
2022/04/07 09:42:42;;;;;;;3.17;0.80;;;11.00;88.00;;;;;;5135871;28;20078;-68
2022/04/07 09:45:12;;;;;;;2.47;1.08;;;11.10;86.70;;;;;;5135566;28;20024;-67
2022/04/07 09:47:46;;;;;;;4.40;0.93;;;11.20;84.70;;;;;;5135699;27;20024;-68
2022/04/07 09:50:32;;;;;;;1.95;0.85;;;11.30;84.40;;;;;;5135505;28;20043;-67
2022/04/07 09:53:02;;;;;;;3.65;1.10;;;11.40;85.00;;;;;;5135648;28;20023;-68
2022/04/07 09:55:41;;;;;;;2.60;0.85;;;11.50;83.20;;;;;;5135742;28;20047;-67
2022/04/07 09:58:10;;;;;;;3.17;1.00;;;11.60;81.80;;;;;;5135454;28;20034;-68
2022/04/07 10:00:36;;;;;;;6.97;1.00;;;11.60;79.30;;;;;;5135312;28;20032;-66
2022/04/07 10:03:03;;;;;;;1.55;0.70;;;11.50;78.10;;;;;;5135354;28;20023;-66
2022/04/07 10:05:30;;;;;;;4.53;0.95;;;11.50;76.20;;;;;;5134693;28;20028;-66
2022/04/07 10:07:59;;;;;;;4.15;0.80;;;11.60;77.50;;;;;;5135206;28;20024;-66
2022/04/07 10:10:26;;;;;;;2.42;0.88;;;11.70;74.30;;;;;;5135134;28;20049;-66
2022/04/07 10:12:52;;;;;;;3.10;1.25;;;11.70;74.50;;;;;;5133981;28;20039;-65
2022/04/07 10:15:18;;;;;;;4.70;1.67;;;11.90;75.40;;;;;;5135019;28;20028;-65
2022/04/07 10:17:45;;;;;;;3.10;0.60;;;12.00;75.70;;;;;;5134971;28;20024;-66
2022/04/07 10:20:17;;;;;;;1.38;0.60;;;12.10;74.00;;;;;;5135092;28;20104;-66
2022/04/07 10:22:43;;;;;;;;;;;12.20;70.40;;;;;;5135275;28;20016;-66
2022/04/07 10:25:09;;;;;;;4.82;0.70;;;12.20;71.30;;;;;;5134745;28;19907;-66
2022/04/07 10:27:42;;;;;;;3.05;0.80;;;12.30;73.00;;;;;;5134707;28;20433;-66
2022/04/07 10:30:13;;;;;;;4.63;0.55;;;12.30;71.80;;;;;;5134849;28;20018;-66
2022/04/07 10:32:52;;;;;;;2.03;0.77;;;12.30;71.20;;;;;;5134908;28;20027;-66
2022/04/07 10:35:30;;;;;;;3.50;0.82;;;12.50;69.70;;;;;;5134831;28;20106;-66
2022/04/07 10:37:57;;;;;;;2.83;1.15;;;12.50;69.10;;;;;;5134417;28;20043;-66
2022/04/07 10:40:38;;;;;;;4.80;1.17;;;12.60;67.10;;;;;;5134537;28;20023;-66
2022/04/07 10:43:04;;;;;;;4.35;0.80;;;12.60;67.20;;;;;;5134499;28;20028;-66
2022/04/07 10:45:37;;;;;;;7.75;1.05;;;12.80;66.50;;;;;;5134513;28;20096;-66
2022/04/07 10:48:26;;;;;;;4.88;1.60;;;12.80;66.60;;;;;;5134570;28;20023;-66
2022/04/07 10:50:54;;;;;;;2.15;1.05;;;12.90;64.60;;;;;;5134405;28;20154;-66
2022/04/07 10:53:30;;;;;;;2.50;0.82;;;13.00;63.40;;;;;;5134359;28;20099;-66
2022/04/07 10:55:57;;;;;;;4.18;0.55;;;13.00;60.70;;;;;;5134286;28;20038;-66
2022/04/07 10:58:44;;;;;;;5.53;0.80;;;13.00;61.60;;;;;;5134164;28;20087;-66
2022/04/07 11:01:33;;;;;;;4.43;0.88;;;13.00;62.60;;;;;;5134233;28;20024;-66
2022/04/07 11:04:22;;;;;;;2.83;1.23;;;13.10;61.50;;;;;;5134015;28;20031;-66
2022/04/07 11:07:07;;;;;;;5.18;0.95;;;13.10;60.50;;;;;;5134126;28;20112;-66
2022/04/07 11:09:58;;;;;;;4.63;1.08;;;13.10;61.20;;;;;;5134049;28;20038;-66
2022/04/07 11:12:32;;;;;;;5.00;0.95;;;13.00;63.50;;;;;;5134096;28;20053;-66
2022/04/07 11:15:03;;;;;;;5.10;0.93;;;12.80;62.80;;;;;;5134083;28;20022;-66
2022/04/07 11:17:32;;;;;;;5.60;0.93;;;12.70;61.70;;;;;;5133212;28;20053;-66
2022/04/07 11:19:57;;;;;;;4.45;0.98;;;12.60;62.90;;;;;;5133796;28;20023;-66
2022/04/07 11:22:46;;;;;;;7.15;1.33;;;12.40;62.60;;;;;;5133813;28;20030;-66
2022/04/07 11:25:14;;;;;;;5.70;1.27;;;12.40;61.80;;;;;;5133956;28;20019;-66
2022/04/07 11:27:42;;;;;;;5.78;1.27;;;12.40;63.20;;;;;;5133796;28;20092;-66
2022/04/07 11:30:10;;;;;;;8.43;1.23;;;12.30;62.00;;;;;;5132913;28;20020;-66
2022/04/07 11:32:38;;;;;;;4.95;1.05;;;12.20;62.70;;;;;;5133826;28;20042;-66
2022/04/07 11:35:17;;;;;;;9.07;1.50;;;12.20;63.50;;;;;;5133784;28;20023;-66
2022/04/07 11:37:44;;;;;;;5.38;1.20;;;12.10;63.90;;;;;;5133562;28;20051;-66
2022/04/07 11:40:10;;;;;;;9.73;1.20;;;12.10;63.40;;;;;;5133729;28;20031;-66
2022/04/07 11:42:37;;;;;;;9.68;1.48;;;12.00;63.70;;;;;;5133640;28;20027;-66
2022/04/07 11:45:04;;;;;;;5.20;1.10;;;11.90;64.60;;;;;;5132651;28;20093;-66
2022/04/07 11:47:36;;;;;;;6.28;1.25;;;11.90;63.30;;;;;;5133702;28;20091;-66
2022/04/07 11:50:06;;;;;;;5.78;1.17;;;11.90;63.30;;;;;;5133734;28;20083;-66
2022/04/07 11:52:34;;;;;;;5.15;1.00;;;11.90;64.00;;;;;;5133705;28;20071;-66
2022/04/07 11:55:02;;;;;;;9.25;1.45;;;11.70;64.30;;;;;;5133608;28;20084;-66
2022/04/07 11:57:29;;;;;;;7.45;1.60;;;11.50;67.80;;;;;;5133612;28;20022;-66
2022/04/07 12:00:05;;;;;;;6.65;1.27;;;11.40;68.70;;;;;;5132522;28;20015;-66
2022/04/07 12:02:31;;;;;;;3.25;1.13;;;11.30;69.70;;;;;;5133641;28;20031;-66
2022/04/07 12:05:00;;;;;;;6.95;1.40;;;11.20;69.70;;;;;;5133411;28;20079;-66
2022/04/07 12:07:27;;;;;;;5.85;1.20;;;11.30;68.60;;;;;;5133458;28;20020;-66
2022/04/07 12:09:56;;;;;;;8.80;1.70;;;11.30;69.10;;;;;;5133405;28;20031;-66
2022/04/07 12:12:22;;;;;;;8.93;1.50;;;11.30;68.10;;;;;;5133432;28;20027;-66
2022/04/07 12:14:49;;;;;;;7.25;1.88;;;11.30;68.70;;;;;;5133436;28;20038;-66
2022/04/07 12:17:15;;;;;;;9.27;2.33;;;11.30;67.30;;;;;;5133503;28;20020;-66
2022/04/07 12:19:47;;;;;;;7.85;2.42;;;11.10;69.80;;;;;;5133351;28;20514;-66
2022/04/07 12:22:13;;;;;;;7.07;1.20;;;11.00;70.60;;;;;;5133395;28;20028;-66
2022/04/07 12:24:57;;;;;;;6.85;1.10;;;11.00;70.00;;;;;;5133364;28;20023;-66
2022/04/07 12:27:33;;;;;;;8.80;2.08;;;11.00;71.30;;;;;;5133421;28;20049;-66
2022/04/07 12:30:00;;;;;;;6.65;1.38;;;11.10;70.00;;;;;;5137254;28;20028;-66
2022/04/07 12:32:45;;;;;;;7.75;1.60;;;11.10;69.70;;;;;;5137115;28;20023;-66
2022/04/07 12:35:11;;;;;;;7.90;1.92;;;11.00;70.70;;;;;;5136114;28;20023;-66
2022/04/07 12:37:39;;;;;;;6.95;1.67;;;11.00;71.20;;;;;;5136833;28;20040;-66
2022/04/07 12:40:15;;;;;;;10.18;1.88;;;10.90;71.10;;;;;;5136938;28;20048;-66
2022/04/07 12:42:51;;;;;;;7.13;2.47;;;10.90;71.70;;;;;;5136916;28;20046;-66
2022/04/07 12:45:16;;;;;;;6.63;1.65;;;10.90;70.30;;;;;;5136748;28;20032;-66
2022/04/07 12:48:17;;;;;;;8.25;1.63;;;10.90;69.60;;;;;;5135729;28;20053;-65
2022/04/07 12:50:43;;;;;;;9.57;1.85;;;11.00;68.20;;;;;;5136871;27;20047;-66